createdAt,value
2023-01-28T00:01:46.892Z,3.90
2023-01-28T00:04:15.262Z,3.60
2023-01-28T00:06:43.525Z,3.93
2023-01-28T00:09:12.175Z,4.57
2023-01-28T00:11:40.451Z,4.60
2023-01-28T00:14:08.498Z,4.57
2023-01-28T00:16:36.549Z,4.30
2023-01-28T00:19:05.922Z,2.90
2023-01-28T00:21:33.936Z,3.03
2023-01-28T00:24:02.068Z,3.10
2023-01-28T00:26:30.176Z,3.17
2023-01-28T00:28:58.186Z,3.83
2023-01-28T00:31:27.699Z,4.30
2023-01-28T00:33:56.775Z,4.47
2023-01-28T00:36:27.317Z,4.30
2023-01-28T00:38:56.773Z,3.60
2023-01-28T00:41:26.944Z,3.47
2023-01-28T00:43:55.514Z,4.00
2023-01-28T00:46:26.409Z,3.70
2023-01-28T00:48:54.603Z,3.80
2023-01-28T00:51:22.745Z,3.70
2023-01-28T00:53:52.968Z,4.50
2023-01-28T00:56:21.335Z,4.43
2023-01-28T00:58:50.371Z,4.27
2023-01-28T01:01:21.327Z,3.97
2023-01-28T01:03:54.352Z,4.47
2023-01-28T01:06:23.538Z,5.07
2023-01-28T01:08:53.009Z,4.83
2023-01-28T01:11:21.020Z,4.80
2023-01-28T01:13:52.490Z,4.07
2023-01-28T01:16:20.578Z,3.70
2023-01-28T01:18:52.172Z,3.67
2023-01-28T01:21:22.597Z,4.40
2023-01-28T01:23:52.662Z,4.50
2023-01-28T01:26:21.348Z,4.27
2023-01-28T01:28:49.389Z,4.10
2023-01-28T01:31:19.536Z,4.03
2023-01-28T01:33:49.347Z,3.70
2023-01-28T01:36:20.154Z,4.27
2023-01-28T01:38:48.717Z,3.90
2023-01-28T01:41:25.740Z,3.80
2023-01-28T01:43:56.139Z,4.20
2023-01-28T01:46:32.175Z,5.00
2023-01-28T01:49:07.713Z,4.70
2023-01-28T01:51:37.242Z,4.07
2023-01-28T01:54:06.435Z,4.37
2023-01-28T01:56:39.850Z,5.10
2023-01-28T01:59:13.151Z,4.43
2023-01-28T02:01:41.719Z,4.50
2023-01-28T02:04:14.747Z,3.90
2023-01-28T02:06:43.423Z,3.73
2023-01-28T02:09:27.333Z,4.07
2023-01-28T02:11:59.582Z,3.87
2023-01-28T02:14:31.897Z,4.00
2023-01-28T02:17:01.644Z,4.70
2023-01-28T02:19:37.651Z,3.60
2023-01-28T02:22:22.062Z,3.27
2023-01-28T02:25:44.855Z,3.67
2023-01-28T02:28:25.251Z,4.00
2023-01-28T02:30:58.425Z,4.07
2023-01-28T02:33:34.778Z,4.80
2023-01-28T02:36:11.503Z,5.00
2023-01-28T02:38:46.875Z,4.90
2023-01-28T02:41:22.032Z,4.77
2023-01-28T02:43:51.849Z,4.70
2023-01-28T02:46:41.368Z,4.67
2023-01-28T02:49:13.739Z,5.40
2023-01-28T02:51:54.011Z,4.37
2023-01-28T02:54:33.262Z,3.97
2023-01-28T02:57:11.304Z,4.13
2023-01-28T02:59:50.527Z,4.10
2023-01-28T03:02:26.610Z,3.97
2023-01-28T03:05:01.181Z,4.00
2023-01-28T03:07:32.465Z,3.60
2023-01-28T03:10:06.049Z,3.90
2023-01-28T03:12:54.066Z,4.77
2023-01-28T03:15:44.355Z,4.47
2023-01-28T03:18:33.698Z,5.40
2023-01-28T03:21:24.364Z,4.70
2023-01-28T03:24:13.958Z,4.93
2023-01-28T03:27:05.418Z,4.80
2023-01-28T03:29:53.470Z,5.10
2023-01-28T03:32:42.226Z,5.13
2023-01-28T03:35:29.706Z,4.70
2023-01-28T03:38:00.185Z,4.50
2023-01-28T03:40:29.775Z,5.10
2023-01-28T03:42:57.821Z,5.20
2023-01-28T03:45:34.874Z,4.60
2023-01-28T03:48:07.197Z,5.17
2023-01-28T03:50:35.355Z,6.13
2023-01-28T03:53:16.340Z,5.73
2023-01-28T03:55:53.961Z,5.60
2023-01-28T03:58:23.390Z,5.53
2023-01-28T04:00:52.423Z,4.70
2023-01-28T04:03:22.452Z,5.20
2023-01-28T04:06:04.319Z,5.53
2023-01-28T04:08:59.205Z,5.90
2023-01-28T04:11:47.826Z,6.50
2023-01-28T04:14:21.271Z,5.87
2023-01-28T04:16:55.855Z,5.40
2023-01-28T04:19:28.121Z,5.40
2023-01-28T04:21:58.052Z,5.33
2023-01-28T04:24:27.003Z,5.03
2023-01-28T04:26:56.497Z,6.50
2023-01-28T04:29:24.898Z,6.20
2023-01-28T04:31:54.805Z,7.70
2023-01-28T04:34:44.451Z,6.47
2023-01-28T04:37:38.451Z,6.17
2023-01-28T04:40:13.918Z,5.70
2023-01-28T04:42:55.340Z,5.73
2023-01-28T04:45:49.252Z,7.13
2023-01-28T04:48:32.147Z,6.53
2023-01-28T04:51:20.206Z,5.97
2023-01-28T04:54:20.648Z,6.10
2023-01-28T04:56:48.836Z,6.23
2023-01-28T04:59:17.114Z,6.67
2023-01-28T05:01:45.220Z,6.90
2023-01-28T05:04:13.333Z,7.20
2023-01-28T05:06:42.735Z,7.07
2023-01-28T05:09:17.703Z,6.83
2023-01-28T05:11:45.757Z,6.43
2023-01-28T05:14:14.943Z,6.50
2023-01-28T05:16:47.098Z,6.47
2023-01-28T05:19:16.091Z,6.53
2023-01-28T05:21:48.312Z,6.83
2023-01-28T05:24:25.183Z,6.60
2023-01-28T05:26:54.486Z,7.57
2023-01-28T05:29:22.530Z,6.50
2023-01-28T05:31:50.595Z,6.63
2023-01-28T05:34:18.991Z,7.10
2023-01-28T05:36:48.391Z,6.77
2023-01-28T05:39:29.039Z,7.17
2023-01-28T05:41:57.119Z,6.47
2023-01-28T05:44:25.707Z,7.27
2023-01-28T05:47:15.943Z,7.63
2023-01-28T05:49:53.750Z,7.97
2023-01-28T05:52:34.983Z,8.50
2023-01-28T05:55:04.174Z,6.87
2023-01-28T05:57:32.384Z,7.20
2023-01-28T06:00:01.484Z,7.93
2023-01-28T06:02:29.951Z,7.80
2023-01-28T06:05:00.504Z,7.40
2023-01-28T06:07:28.687Z,7.33
2023-01-28T06:09:58.101Z,8.70
2023-01-28T06:12:26.143Z,7.60
2023-01-28T06:15:13.059Z,6.80
2023-01-28T06:18:02.395Z,8.37
2023-01-28T06:20:34.127Z,7.90
2023-01-28T06:23:02.748Z,7.23
2023-01-28T06:25:32.131Z,7.27
2023-01-28T06:28:04.743Z,9.50
2023-01-28T06:30:32.790Z,9.00
2023-01-28T06:33:00.824Z,8.77
2023-01-28T06:35:28.995Z,6.80
2023-01-28T06:37:57.359Z,8.63
2023-01-28T06:40:26.000Z,7.33
2023-01-28T06:42:55.368Z,7.80
2023-01-28T06:45:23.382Z,8.60
2023-01-28T06:47:51.390Z,8.57
2023-01-28T06:50:19.436Z,9.43
2023-01-28T06:52:47.473Z,8.37
2023-01-28T06:55:15.586Z,9.80
2023-01-28T06:57:45.464Z,8.67
2023-01-28T07:00:16.774Z,7.70
2023-01-28T07:02:45.028Z,9.17
2023-01-28T07:05:13.099Z,8.87
2023-01-28T07:07:42.093Z,9.33
2023-01-28T07:10:11.813Z,7.87
2023-01-28T07:12:40.102Z,8.43
2023-01-28T07:15:10.926Z,8.47
2023-01-28T07:17:42.331Z,11.03
2023-01-28T07:20:12.806Z,9.77
2023-01-28T07:22:42.970Z,8.97
2023-01-28T07:25:12.568Z,9.57
2023-01-28T07:27:40.643Z,10.17
2023-01-28T07:30:10.067Z,10.47
2023-01-28T07:32:38.107Z,9.63
2023-01-28T07:35:09.131Z,9.83
2023-01-28T07:37:37.251Z,10.47
2023-01-28T07:40:05.905Z,11.33
2023-01-28T07:42:34.144Z,12.40
2023-01-28T07:45:06.626Z,11.50
2023-01-28T07:47:34.761Z,11.83
2023-01-28T07:50:02.886Z,11.23
2023-01-28T07:52:38.116Z,11.37
2023-01-28T07:55:06.856Z,12.67
2023-01-28T07:57:34.918Z,12.00
2023-01-28T08:00:02.962Z,11.97
2023-01-28T08:02:40.327Z,13.33
2023-01-28T08:05:09.105Z,14.13
2023-01-28T08:07:38.646Z,14.47
2023-01-28T08:10:08.077Z,15.83
2023-01-28T08:12:36.095Z,16.83
2023-01-28T08:15:05.383Z,14.83
2023-01-28T08:17:33.762Z,14.37
2023-01-28T08:20:01.781Z,14.33
2023-01-28T08:22:30.537Z,13.27
2023-01-28T08:24:59.891Z,11.60
2023-01-28T08:27:27.910Z,10.63
2023-01-28T08:29:55.903Z,11.53
2023-01-28T08:32:23.914Z,11.47
2023-01-28T08:34:51.971Z,12.40
2023-01-28T08:37:19.995Z,12.83
2023-01-28T08:39:48.099Z,12.20
2023-01-28T08:42:17.597Z,14.80
2023-01-28T08:44:45.583Z,16.17
2023-01-28T08:47:13.577Z,17.77
2023-01-28T08:49:41.684Z,16.30
2023-01-28T08:52:16.888Z,15.50
2023-01-28T08:54:44.898Z,15.77
2023-01-28T08:57:12.904Z,15.47
2023-01-28T08:59:45.102Z,12.87
2023-01-28T09:02:29.423Z,13.03
2023-01-28T09:04:59.219Z,13.40
2023-01-28T09:07:27.220Z,12.00
2023-01-28T09:09:55.249Z,12.27
2023-01-28T09:12:23.353Z,11.70
2023-01-28T09:14:52.955Z,11.43
2023-01-28T09:17:21.222Z,11.53
2023-01-28T09:19:49.202Z,11.70
2023-01-28T09:22:17.704Z,11.57
2023-01-28T09:24:45.727Z,11.47
2023-01-28T09:27:14.004Z,11.17
2023-01-28T09:29:42.007Z,11.17
2023-01-28T09:32:11.368Z,11.47
2023-01-28T09:34:40.131Z,13.10
2023-01-28T09:37:08.265Z,12.03
2023-01-28T09:39:36.276Z,12.60
2023-01-28T09:42:32.921Z,12.97
2023-01-28T09:45:08.747Z,12.10
2023-01-28T09:47:43.131Z,12.53
2023-01-28T09:50:16.623Z,12.60
2023-01-28T09:52:46.417Z,13.17
2023-01-28T09:55:24.063Z,13.07
2023-01-28T09:57:55.374Z,12.40
2023-01-28T10:00:25.362Z,12.93
2023-01-28T10:03:22.486Z,13.00
2023-01-28T10:06:02.021Z,13.43
2023-01-28T10:08:52.330Z,14.20
2023-01-28T10:11:27.247Z,13.40
2023-01-28T10:14:03.290Z,13.47
2023-01-28T10:16:38.467Z,13.10
2023-01-28T10:19:17.086Z,13.07
2023-01-28T10:21:52.348Z,13.03
2023-01-28T10:24:28.679Z,12.47
2023-01-28T10:26:57.857Z,12.63
2023-01-28T10:29:29.119Z,12.60
2023-01-28T10:32:00.817Z,12.87
2023-01-28T10:34:30.210Z,13.03
2023-01-28T10:36:59.597Z,13.27
2023-01-28T10:39:29.313Z,13.00
2023-01-28T10:41:58.884Z,13.60
2023-01-28T10:44:33.822Z,12.67
2023-01-28T10:47:06.358Z,12.77
2023-01-28T10:49:44.000Z,12.10
2023-01-28T10:52:13.495Z,11.87
2023-01-28T10:54:41.551Z,12.37
2023-01-28T10:57:14.055Z,12.13
2023-01-28T10:59:42.910Z,12.70
2023-01-28T11:02:32.913Z,12.03
2023-01-28T11:05:18.126Z,12.83
2023-01-28T11:07:46.258Z,12.77
2023-01-28T11:10:27.329Z,12.87
2023-01-28T11:12:59.136Z,12.47
2023-01-28T11:15:27.705Z,12.67
2023-01-28T11:18:00.506Z,13.57
2023-01-28T11:20:34.599Z,13.47
2023-01-28T11:23:03.086Z,12.30
2023-01-28T11:25:33.068Z,14.80
2023-01-28T11:28:03.283Z,14.00
2023-01-28T11:30:33.951Z,14.13
2023-01-28T11:33:08.915Z,13.30
2023-01-28T11:35:38.311Z,14.13
2023-01-28T11:38:18.724Z,14.10
2023-01-28T11:40:52.968Z,13.37
2023-01-28T11:43:24.079Z,12.63
2023-01-28T11:46:02.674Z,13.13
2023-01-28T11:48:38.382Z,13.67
2023-01-28T11:51:21.471Z,13.00
2023-01-28T11:54:08.631Z,13.23
2023-01-28T11:56:57.674Z,13.10
2023-01-28T11:59:58.237Z,13.37
2023-01-28T12:02:54.399Z,13.13
2023-01-28T12:05:47.848Z,12.80
2023-01-28T12:08:24.775Z,13.03
2023-01-28T12:11:14.394Z,13.10
2023-01-28T12:14:00.208Z,12.33
2023-01-28T12:16:46.635Z,11.80
2023-01-28T12:19:28.171Z,11.60
2023-01-28T12:22:10.045Z,12.00
2023-01-28T12:24:54.884Z,12.10
2023-01-28T12:27:36.012Z,12.17
2023-01-28T12:30:19.866Z,11.60
2023-01-28T12:33:02.666Z,11.23
2023-01-28T12:35:45.673Z,11.27
2023-01-28T12:38:16.953Z,11.57
2023-01-28T12:41:02.449Z,11.40
2023-01-28T12:43:51.152Z,12.03
2023-01-28T12:46:30.179Z,11.30
2023-01-28T12:49:03.456Z,12.13
2023-01-28T12:51:37.726Z,11.87
2023-01-28T12:54:11.402Z,11.27
2023-01-28T12:56:45.430Z,11.43
2023-01-28T12:59:17.679Z,11.10
2023-01-28T13:01:48.972Z,11.40
2023-01-28T13:04:32.515Z,11.07
2023-01-28T13:07:05.397Z,11.70
2023-01-28T13:09:37.638Z,12.33
2023-01-28T13:12:08.210Z,11.63
2023-01-28T13:14:36.702Z,12.40
2023-01-28T13:17:25.504Z,12.17
2023-01-28T13:19:53.566Z,11.97
2023-01-28T13:22:30.193Z,12.73
2023-01-28T13:25:00.438Z,12.53
2023-01-28T13:27:30.157Z,13.00
2023-01-28T13:30:22.992Z,12.27
2023-01-28T13:32:58.741Z,13.10
2023-01-28T13:35:33.650Z,14.33
2023-01-28T13:38:09.390Z,13.57
2023-01-28T13:40:39.726Z,12.80
2023-01-28T13:43:28.985Z,12.43
2023-01-28T13:45:58.837Z,12.03
2023-01-28T13:48:34.003Z,12.43
2023-01-28T13:51:03.415Z,11.53
2023-01-28T13:53:41.920Z,10.87
2023-01-28T13:56:21.453Z,11.23
2023-01-28T13:59:18.784Z,12.00
2023-01-28T14:02:26.462Z,11.70
2023-01-28T14:05:31.771Z,12.17
2023-01-28T14:08:44.607Z,12.00
2023-01-28T14:11:34.029Z,11.30
2023-01-28T14:14:28.003Z,12.20
2023-01-28T14:16:59.800Z,12.23
2023-01-28T14:19:30.957Z,12.90
2023-01-28T14:21:59.402Z,12.10
2023-01-28T14:24:28.657Z,13.40
2023-01-28T14:27:03.587Z,13.77
2023-01-28T14:29:45.330Z,13.40
2023-01-28T14:32:16.841Z,13.37
2023-01-28T14:34:46.051Z,12.60
2023-01-28T14:37:16.144Z,13.50
2023-01-28T14:39:47.839Z,13.13
2023-01-28T14:42:21.624Z,13.00
2023-01-28T14:44:57.608Z,13.37
2023-01-28T14:47:53.699Z,13.87
2023-01-28T14:50:35.807Z,13.17
2023-01-28T14:53:28.910Z,13.33
2023-01-28T14:56:03.391Z,13.47
2023-01-28T14:58:33.757Z,12.20
2023-01-28T15:01:03.555Z,12.80
2023-01-28T15:03:45.812Z,13.67
2023-01-28T15:06:15.957Z,12.33
2023-01-28T15:08:44.099Z,13.03
2023-01-28T15:11:15.412Z,12.87
2023-01-28T15:13:46.073Z,13.67
2023-01-28T15:16:22.207Z,13.27
2023-01-28T15:18:51.429Z,14.10
2023-01-28T15:21:23.283Z,13.33
2023-01-28T15:23:53.969Z,14.83
2023-01-28T15:26:24.447Z,17.17
2023-01-28T15:28:54.908Z,15.50
2023-01-28T15:31:28.443Z,16.13
2023-01-28T15:34:00.088Z,22.43
2023-01-28T15:36:29.124Z,15.97
2023-01-28T15:38:58.539Z,16.50
2023-01-28T15:41:31.056Z,21.17
2023-01-28T15:43:59.257Z,31.47
2023-01-28T15:46:31.156Z,26.13
2023-01-28T15:49:01.804Z,21.93
2023-01-28T15:51:32.025Z,19.30
2023-01-28T15:54:04.291Z,17.70
2023-01-28T15:56:32.508Z,20.37
2023-01-28T15:59:10.945Z,25.80
2023-01-28T16:01:40.337Z,21.93
2023-01-28T16:04:23.002Z,18.87
2023-01-28T16:06:51.586Z,18.37
2023-01-28T16:09:25.103Z,17.37
2023-01-28T16:11:53.792Z,17.27
2023-01-28T16:14:25.795Z,16.70
2023-01-28T16:16:56.949Z,19.57
2023-01-28T16:19:34.450Z,20.27
2023-01-28T16:22:03.085Z,21.37
2023-01-28T16:24:36.092Z,26.00
2023-01-28T16:27:08.691Z,22.87
2023-01-28T16:29:37.129Z,20.63
2023-01-28T16:32:30.681Z,13.63
2023-01-28T16:34:58.683Z,16.70
2023-01-28T16:37:28.157Z,12.73
2023-01-28T16:39:58.078Z,18.13
2023-01-28T16:42:27.200Z,22.20
2023-01-28T16:44:55.226Z,18.40
2023-01-28T16:47:24.634Z,16.87
2023-01-28T16:49:52.961Z,14.80
2023-01-28T16:52:20.990Z,15.47
2023-01-28T16:54:49.212Z,14.33
2023-01-28T16:57:19.745Z,18.33
2023-01-28T16:59:48.362Z,16.33
2023-01-28T17:02:18.317Z,17.33
2023-01-28T17:04:47.687Z,16.17
2023-01-28T17:07:15.691Z,18.40
2023-01-28T17:09:43.677Z,17.77
2023-01-28T17:12:11.676Z,19.07
2023-01-28T17:14:39.950Z,17.13
2023-01-28T17:17:07.984Z,15.93
2023-01-28T17:19:36.008Z,15.30
2023-01-28T17:22:05.363Z,14.60
2023-01-28T17:24:33.389Z,13.67
2023-01-28T17:27:04.423Z,14.23
2023-01-28T17:29:32.972Z,13.97
2023-01-28T17:32:01.087Z,14.23
2023-01-28T17:34:29.446Z,13.77
2023-01-28T17:36:57.473Z,14.13
2023-01-28T17:39:26.902Z,13.73
2023-01-28T17:41:55.079Z,14.40
2023-01-28T17:44:23.367Z,15.20
2023-01-28T17:46:51.378Z,14.47
2023-01-28T17:49:19.369Z,14.97
2023-01-28T17:51:47.404Z,19.63
2023-01-28T17:54:16.873Z,18.27
2023-01-28T17:56:46.327Z,16.70
2023-01-28T17:59:16.772Z,17.13
2023-01-28T18:01:47.358Z,18.67
2023-01-28T18:04:15.507Z,17.03
2023-01-28T18:06:43.526Z,17.37
2023-01-28T18:09:12.569Z,17.50
2023-01-28T18:11:40.548Z,19.80
2023-01-28T18:14:09.936Z,21.53
2023-01-28T18:16:37.916Z,21.53
2023-01-28T18:19:06.279Z,19.53
2023-01-28T18:21:51.864Z,20.80
2023-01-28T18:24:21.061Z,17.87
2023-01-28T18:26:51.503Z,17.03
2023-01-28T18:29:23.877Z,16.90
2023-01-28T18:31:54.220Z,25.70
2023-01-28T18:34:23.326Z,23.30
2023-01-28T18:36:51.328Z,21.77
2023-01-28T18:39:20.603Z,19.97
2023-01-28T18:41:48.837Z,15.57
2023-01-28T18:44:18.187Z,17.03
2023-01-28T18:46:47.647Z,17.67
2023-01-28T18:49:15.830Z,16.47
2023-01-28T18:51:44.447Z,15.40
2023-01-28T18:54:14.878Z,16.07
2023-01-28T18:56:43.746Z,15.50
2023-01-28T18:59:13.479Z,14.10
2023-01-28T19:01:42.626Z,16.43
2023-01-28T19:04:12.166Z,14.60
2023-01-28T19:06:40.231Z,17.37
2023-01-28T19:09:09.484Z,20.50
2023-01-28T19:11:40.636Z,17.27
2023-01-28T19:14:09.053Z,16.33
2023-01-28T19:16:37.341Z,16.20
2023-01-28T19:19:06.125Z,14.40
2023-01-28T19:21:35.723Z,19.13
2023-01-28T19:24:06.620Z,19.77
2023-01-28T19:26:34.771Z,17.13
2023-01-28T19:29:03.017Z,16.77
2023-01-28T19:31:31.066Z,16.10
2023-01-28T19:34:00.843Z,16.37
2023-01-28T19:36:33.468Z,14.30
2023-01-28T19:39:05.230Z,17.43
2023-01-28T19:41:33.474Z,16.20
2023-01-28T19:44:01.497Z,18.13
2023-01-28T19:46:29.923Z,16.93
2023-01-28T19:48:58.576Z,17.47
2023-01-28T19:51:26.834Z,19.43
2023-01-28T19:53:55.776Z,18.80
2023-01-28T19:56:26.867Z,22.47
2023-01-28T19:58:55.566Z,16.30
2023-01-28T20:01:27.245Z,17.23
2023-01-28T20:03:59.200Z,16.77
2023-01-28T20:06:28.977Z,16.63
2023-01-28T20:08:59.258Z,17.07
2023-01-28T20:11:28.942Z,17.30
2023-01-28T20:13:57.462Z,16.50
2023-01-28T20:16:29.683Z,18.03
2023-01-28T20:18:59.253Z,18.00
2023-01-28T20:21:27.916Z,17.10
2023-01-28T20:23:57.817Z,15.03
2023-01-28T20:26:31.172Z,16.23
2023-01-28T20:29:01.039Z,15.13
2023-01-28T20:31:29.165Z,15.97
2023-01-28T20:33:57.235Z,16.37
2023-01-28T20:36:25.259Z,15.03
2023-01-28T20:38:53.623Z,14.87
2023-01-28T20:41:23.631Z,15.17
2023-01-28T20:43:54.312Z,13.33
2023-01-28T20:46:25.015Z,15.80
2023-01-28T20:48:54.713Z,15.50
2023-01-28T20:51:25.003Z,22.37
2023-01-28T20:53:53.681Z,18.00
2023-01-28T20:56:23.694Z,18.17
2023-01-28T20:58:57.773Z,16.67
2023-01-28T21:01:27.606Z,16.90
2023-01-28T21:03:56.530Z,16.03
2023-01-28T21:06:25.347Z,16.10
2023-01-28T21:08:54.024Z,17.07
2023-01-28T21:11:23.024Z,20.73
2023-01-28T21:13:51.702Z,17.03
2023-01-28T21:16:21.442Z,16.10
2023-01-28T21:18:50.209Z,14.77
2023-01-28T21:21:19.884Z,15.43
2023-01-28T21:23:48.002Z,17.10
2023-01-28T21:26:16.414Z,16.23
2023-01-28T21:28:45.156Z,15.30
2023-01-28T21:31:16.355Z,15.80
2023-01-28T21:33:49.855Z,14.77
2023-01-28T21:36:19.004Z,14.53
2023-01-28T21:38:51.666Z,16.60
2023-01-28T21:41:19.662Z,15.97
2023-01-28T21:43:52.037Z,16.73
2023-01-28T21:46:20.130Z,16.73
2023-01-28T21:48:49.614Z,16.07
2023-01-28T21:51:34.821Z,16.67
2023-01-28T21:54:03.195Z,16.80
2023-01-28T21:56:31.286Z,18.87
2023-01-28T21:59:16.939Z,16.67
2023-01-28T22:01:45.538Z,15.00
2023-01-28T22:04:16.402Z,15.87
2023-01-28T22:06:46.219Z,15.03
2023-01-28T22:09:20.371Z,14.97
2023-01-28T22:11:50.430Z,16.23
2023-01-28T22:14:21.166Z,14.77
2023-01-28T22:16:51.024Z,14.70
2023-01-28T22:19:22.863Z,15.17
2023-01-28T22:21:52.881Z,14.40
2023-01-28T22:24:24.608Z,14.87
2023-01-28T22:26:55.583Z,14.93
2023-01-28T22:29:26.171Z,14.33
2023-01-28T22:31:57.035Z,14.33
2023-01-28T22:34:29.611Z,15.00
2023-01-28T22:36:59.494Z,15.50
2023-01-28T22:39:28.607Z,13.50
2023-01-28T22:41:58.139Z,14.63
2023-01-28T22:44:26.867Z,14.40
2023-01-28T22:46:56.889Z,15.10
2023-01-28T22:49:28.205Z,14.43
2023-01-28T22:51:59.056Z,14.97
2023-01-28T22:54:29.285Z,16.03
2023-01-28T22:56:57.492Z,15.83
2023-01-28T22:59:26.852Z,15.40
2023-01-28T23:01:56.853Z,13.77
2023-01-28T23:04:30.230Z,14.90
2023-01-28T23:07:00.453Z,14.33
2023-01-28T23:09:31.163Z,14.27
2023-01-28T23:12:01.206Z,13.83
2023-01-28T23:14:48.577Z,14.13
2023-01-28T23:17:34.948Z,14.23
2023-01-28T23:20:23.636Z,13.70
2023-01-28T23:23:10.400Z,13.80
2023-01-28T23:25:39.532Z,12.93
2023-01-28T23:28:08.951Z,13.63
2023-01-28T23:30:39.878Z,13.73
2023-01-28T23:33:09.319Z,14.13
2023-01-28T23:35:39.984Z,14.00
2023-01-28T23:38:09.724Z,13.40
2023-01-28T23:40:41.064Z,13.43
2023-01-28T23:43:10.420Z,13.63
2023-01-28T23:45:39.728Z,14.70
2023-01-28T23:48:09.031Z,13.03
2023-01-28T23:50:39.311Z,14.60
2023-01-28T23:53:13.511Z,13.57
2023-01-28T23:55:47.975Z,14.13
2023-01-28T23:58:21.680Z,12.60
